Time;durP1;ratioP1;P1;durP2;ratioP2;P2;SDS_P1;SDS_P2;PMS_P1;PMS_P2;Temp;Humidity;BMP_temperature;BMP_pressure;BME280_temperature;BME280_humidity;BME280_pressure;Samples;Min_cycle;Max_cycle;Signal;HPM_P1;HPM_P2
2022/03/06 00:00:42;;;;;;;2.87;2.67;;;3.90;99.90;;;;;;5005383;28;20218;-81
2022/03/06 00:03:09;;;;;;;3.30;2.97;;;3.90;99.90;;;;;;5005583;28;20525;-81
2022/03/06 00:05:35;;;;;;;3.00;2.70;;;3.80;99.90;;;;;;5023929;28;20289;-82
2022/03/06 00:08:02;;;;;;;2.20;1.80;;;3.90;99.90;;;;;;4989715;28;20207;-82
2022/03/06 00:10:29;;;;;;;2.73;2.53;;;3.80;99.90;;;;;;4980560;28;20702;-83
2022/03/06 00:12:55;;;;;;;2.83;2.63;;;3.80;99.90;;;;;;5024068;28;20218;-83
2022/03/06 00:15:26;;;;;;;7.83;3.13;;;3.90;99.90;;;;;;4989239;28;20195;-83
2022/03/06 00:17:53;;;;;;;2.60;2.10;;;3.80;99.90;;;;;;5023422;28;20226;-84
2022/03/06 00:20:18;;;;;;;7.20;3.70;;;3.70;99.90;;;;;;5005501;28;20214;-83
2022/03/06 00:22:44;;;;;;;3.70;2.83;;;3.80;99.90;;;;;;4988108;28;20234;-82
2022/03/06 00:25:10;;;;;;;2.47;2.27;;;3.70;99.90;;;;;;5002904;28;20702;-82
2022/03/06 00:27:36;;;;;;;2.77;2.47;;;3.70;99.90;;;;;;5005708;28;20570;-83
2022/03/06 00:30:03;;;;;;;3.37;2.77;;;3.60;99.90;;;;;;4990167;28;20223;-82
2022/03/06 00:32:29;;;;;;;2.77;2.50;;;3.60;99.90;;;;;;5004608;28;20574;-82
2022/03/06 00:34:55;;;;;;;3.93;2.97;;;3.60;99.90;;;;;;5024272;28;20219;-83
2022/03/06 00:37:20;;;;;;;6.10;2.90;;;3.70;99.90;;;;;;5022796;28;20253;-82
2022/03/06 00:39:46;;;;;;;3.00;2.47;;;3.70;99.90;;;;;;5002678;28;20222;-83
2022/03/06 00:42:12;;;;;;;1.47;1.37;;;3.70;99.90;;;;;;4980874;28;20231;-81
2022/03/06 00:44:38;;;;;;;4.27;3.77;;;3.70;99.90;;;;;;4984458;28;20219;-82
2022/03/06 00:47:04;;;;;;;4.20;2.87;;;3.80;99.90;;;;;;4967244;28;20220;-83
2022/03/06 00:49:31;;;;;;;2.30;1.97;;;3.80;99.90;;;;;;4989470;28;20226;-84
2022/03/06 00:51:57;;;;;;;3.10;2.90;;;3.80;99.90;;;;;;4967395;28;20219;-83
2022/03/06 00:54:23;;;;;;;4.57;3.73;;;3.80;99.90;;;;;;4966315;28;20534;-84
2022/03/06 00:56:49;;;;;;;3.67;3.30;;;3.80;99.90;;;;;;4984681;28;20207;-83
2022/03/06 00:59:15;;;;;;;3.13;2.87;;;3.80;99.90;;;;;;4996729;28;20238;-82
2022/03/06 01:01:41;;;;;;;2.57;2.37;;;3.80;99.90;;;;;;4998950;28;20224;-81
2022/03/06 01:04:07;;;;;;;4.17;2.60;;;3.80;99.90;;;;;;4986313;28;20225;-82
2022/03/06 01:06:32;;;;;;;4.57;2.60;;;3.80;99.90;;;;;;4981397;28;20278;-83
2022/03/06 01:08:58;;;;;;;2.97;2.73;;;3.70;99.90;;;;;;4983173;28;20199;-83
2022/03/06 01:11:24;;;;;;;2.73;2.53;;;3.60;99.90;;;;;;4995270;28;20258;-83
2022/03/06 01:13:50;;;;;;;2.00;1.90;;;3.70;99.90;;;;;;4988118;28;20219;-84
2022/03/06 01:16:16;;;;;;;3.53;3.20;;;3.70;99.90;;;;;;4984479;28;20215;-82
2022/03/06 01:18:42;;;;;;;3.97;2.60;;;3.90;99.90;;;;;;4965780;28;20220;-84
2022/03/06 01:21:07;;;;;;;4.57;2.30;;;3.80;99.90;;;;;;4990350;28;20536;-82
2022/03/06 01:23:35;;;;;;;8.00;2.23;;;3.80;99.90;;;;;;4980922;28;20257;-82
2022/03/06 01:26:01;;;;;;;4.13;3.03;;;3.90;99.90;;;;;;4986423;28;20227;-82
2022/03/06 01:28:27;;;;;;;4.33;1.87;;;3.80;99.90;;;;;;4983445;28;20228;-84
2022/03/06 01:30:53;;;;;;;2.50;2.30;;;3.80;99.90;;;;;;4980430;28;20326;-82
2022/03/06 01:33:19;;;;;;;2.07;1.63;;;3.80;99.90;;;;;;4964152;28;20220;-84
2022/03/06 01:35:44;;;;;;;3.23;2.93;;;3.80;99.90;;;;;;4967715;28;20199;-82
2022/03/06 01:38:10;;;;;;;3.60;3.20;;;3.90;99.90;;;;;;4981782;28;20220;-83
2022/03/06 01:40:36;;;;;;;2.20;2.10;;;3.90;99.90;;;;;;4981406;28;20592;-83
2022/03/06 01:43:02;;;;;;;5.20;2.83;;;3.90;99.90;;;;;;4993774;28;20603;-83
2022/03/06 01:45:28;;;;;;;5.90;2.70;;;3.80;99.90;;;;;;5000926;28;20249;-83
2022/03/06 01:47:55;;;;;;;3.10;2.37;;;3.90;99.90;;;;;;5003251;28;20592;-82
2022/03/06 01:50:32;;;;;;;1.70;1.70;;;3.80;99.90;;;;;;5001416;28;20289;-82
2022/03/06 01:52:59;;;;;;;2.67;2.37;;;3.80;99.90;;;;;;5020050;28;20214;-81
2022/03/06 01:55:27;;;;;;;1.50;1.10;;;3.80;99.90;;;;;;4992798;28;20234;-82
2022/03/06 01:57:56;;;;;;;0.60;0.60;;;3.70;99.90;;;;;;5003485;28;20206;-82
2022/03/06 02:00:24;;;;;;;0.83;0.83;;;3.60;99.90;;;;;;4998976;28;20198;-82
2022/03/06 02:02:50;;;;;;;0.73;0.73;;;3.80;99.90;;;;;;5001449;28;20186;-81
2022/03/06 02:05:16;;;;;;;1.23;1.20;;;4.10;99.90;;;;;;4982646;28;20228;-82
2022/03/06 02:07:42;;;;;;;1.57;1.30;;;4.20;99.90;;;;;;5010891;28;20210;-83
2022/03/06 02:10:09;;;;;;;1.97;1.67;;;4.30;99.90;;;;;;4983778;28;20579;-82
2022/03/06 02:12:35;;;;;;;1.13;1.13;;;4.30;99.90;;;;;;5000158;28;20183;-82
2022/03/06 02:15:05;;;;;;;1.30;1.20;;;4.30;99.90;;;;;;5001490;28;20234;-82
2022/03/06 02:17:31;;;;;;;1.40;1.40;;;4.30;99.90;;;;;;5013112;28;20285;-82
2022/03/06 02:20:06;;;;;;;6.77;2.70;;;4.20;99.90;;;;;;4986456;28;20235;-82
2022/03/06 02:22:35;;;;;;;2.90;2.27;;;4.10;99.90;;;;;;5018677;28;20222;-83
2022/03/06 02:25:13;;;;;;;3.50;2.57;;;4.10;99.90;;;;;;4999201;28;20219;-82
2022/03/06 02:27:39;;;;;;;4.57;3.47;;;4.10;99.90;;;;;;5001805;28;20218;-83
2022/03/06 02:30:14;;;;;;;2.53;1.93;;;4.10;99.90;;;;;;5002451;28;20316;-82
2022/03/06 02:32:40;;;;;;;1.37;1.27;;;4.10;99.90;;;;;;5003583;28;20222;-82
2022/03/06 02:35:07;;;;;;;3.97;2.87;;;4.00;99.90;;;;;;5002395;28;20679;-82
2022/03/06 02:37:33;;;;;;;2.33;1.83;;;4.00;99.90;;;;;;5000575;28;20322;-82
2022/03/06 02:40:01;;;;;;;5.13;2.53;;;3.90;99.90;;;;;;5002594;28;20742;-82
2022/03/06 02:42:32;;;;;;;1.20;1.20;;;3.90;99.90;;;;;;4961598;28;20684;-83
2022/03/06 02:44:59;;;;;;;2.70;2.50;;;4.00;99.90;;;;;;4987716;28;20192;-82
2022/03/06 02:47:25;;;;;;;1.67;1.57;;;4.00;99.90;;;;;;4982180;28;20680;-83
2022/03/06 02:49:52;;;;;;;1.73;1.40;;;4.00;99.90;;;;;;4964705;28;20378;-83
2022/03/06 02:52:18;;;;;;;3.00;2.13;;;3.90;99.90;;;;;;4965762;28;20307;-82
2022/03/06 02:54:44;;;;;;;2.10;1.90;;;3.80;99.90;;;;;;4981304;28;20232;-82
2022/03/06 02:57:11;;;;;;;3.80;3.50;;;3.90;99.90;;;;;;4991919;28;20176;-82
2022/03/06 02:59:37;;;;;;;2.47;2.10;;;3.80;99.90;;;;;;4985749;28;20228;-81
2022/03/06 03:02:04;;;;;;;3.23;2.43;;;3.70;99.90;;;;;;4963418;28;20230;-82
2022/03/06 03:04:31;;;;;;;2.93;2.73;;;3.70;99.90;;;;;;4990330;28;20943;-81
2022/03/06 03:06:57;;;;;;;3.10;2.20;;;3.70;99.90;;;;;;4980327;28;20704;-82
2022/03/06 03:09:25;;;;;;;3.37;3.07;;;3.70;99.90;;;;;;4962927;28;20436;-82
2022/03/06 03:11:50;;;;;;;2.20;1.97;;;3.60;99.90;;;;;;4965400;28;20196;-82
2022/03/06 03:14:17;;;;;;;3.63;2.27;;;3.60;99.90;;;;;;4986969;28;20224;-81
2022/03/06 03:16:43;;;;;;;2.57;2.37;;;3.60;99.90;;;;;;4990398;28;20496;-82
2022/03/06 03:19:09;;;;;;;2.13;1.93;;;3.60;99.90;;;;;;4968090;28;20222;-82
2022/03/06 03:21:35;;;;;;;2.93;2.50;;;3.60;99.90;;;;;;4982110;28;20568;-82
2022/03/06 03:24:02;;;;;;;3.70;2.17;;;3.60;99.90;;;;;;4981125;28;20466;-82
2022/03/06 03:26:27;;;;;;;3.00;2.57;;;3.60;99.90;;;;;;4979541;28;20220;-81
2022/03/06 03:28:53;;;;;;;2.83;2.13;;;3.50;99.90;;;;;;4981469;28;20673;-81
2022/03/06 03:31:19;;;;;;;1.97;1.80;;;3.50;99.90;;;;;;4985642;28;20757;-82
2022/03/06 03:33:45;;;;;;;2.10;1.80;;;3.50;99.90;;;;;;4998977;28;20729;-82
2022/03/06 03:36:11;;;;;;;1.50;1.10;;;3.50;99.90;;;;;;4994361;28;20237;-82
2022/03/06 03:38:39;;;;;;;1.03;1.03;;;3.50;99.90;;;;;;4990445;28;20218;-81
2022/03/06 03:41:06;;;;;;;1.23;1.23;;;3.50;99.90;;;;;;4969308;28;20707;-82
2022/03/06 03:43:32;;;;;;;1.27;1.17;;;3.50;99.90;;;;;;5019836;28;20325;-82
2022/03/06 03:45:58;;;;;;;2.50;2.40;;;3.50;99.90;;;;;;5022778;28;20278;-81
2022/03/06 03:48:28;;;;;;;1.27;1.20;;;3.50;99.90;;;;;;5005221;28;20260;-82
2022/03/06 03:50:54;;;;;;;1.63;1.53;;;3.50;99.90;;;;;;5003932;28;20218;-82
2022/03/06 03:53:21;;;;;;;1.63;1.53;;;3.40;99.90;;;;;;5023082;28;20222;-82
2022/03/06 03:55:47;;;;;;;1.07;0.97;;;3.40;99.90;;;;;;5004632;28;20687;-82
2022/03/06 03:58:13;;;;;;;0.70;0.70;;;3.40;99.90;;;;;;5003589;28;20218;-82
2022/03/06 04:00:39;;;;;;;0.87;0.87;;;3.40;99.90;;;;;;5006001;28;20356;-81
2022/03/06 04:03:05;;;;;;;0.83;0.83;;;3.40;99.90;;;;;;5006213;28;20554;-82
2022/03/06 04:05:30;;;;;;;0.93;0.93;;;3.50;99.90;;;;;;5023375;28;20238;-81
2022/03/06 04:07:56;;;;;;;2.60;1.00;;;3.50;99.90;;;;;;4989663;28;20680;-82
2022/03/06 04:10:22;;;;;;;0.87;0.87;;;3.60;99.90;;;;;;4990296;28;20265;-81
2022/03/06 04:12:48;;;;;;;1.27;1.13;;;3.60;99.90;;;;;;5004962;28;20635;-81
2022/03/06 04:15:13;;;;;;;1.13;0.97;;;3.60;99.90;;;;;;5005560;28;20222;-82
2022/03/06 04:17:39;;;;;;;1.57;1.20;;;3.60;99.90;;;;;;5003544;28;20249;-82
2022/03/06 04:20:06;;;;;;;1.17;1.07;;;3.60;99.90;;;;;;4988846;28;20222;-81
2022/03/06 04:22:33;;;;;;;0.50;0.50;;;3.60;99.90;;;;;;5022000;28;20226;-82
2022/03/06 04:24:59;;;;;;;0.60;0.60;;;3.50;99.90;;;;;;5023000;28;20214;-81
2022/03/06 04:27:25;;;;;;;0.70;0.70;;;3.60;99.90;;;;;;5004417;28;20197;-82
2022/03/06 04:29:51;;;;;;;0.60;0.60;;;3.60;99.90;;;;;;5005576;28;20223;-82
2022/03/06 04:32:16;;;;;;;1.10;1.10;;;3.50;99.90;;;;;;5023221;28;21038;-82
2022/03/06 04:34:42;;;;;;;0.67;0.67;;;3.60;99.90;;;;;;5022882;28;20241;-81
2022/03/06 04:37:08;;;;;;;1.13;1.03;;;3.60;99.90;;;;;;5004502;28;20580;-81
2022/03/06 04:39:34;;;;;;;1.03;0.97;;;3.60;99.90;;;;;;5021530;28;20197;-81
2022/03/06 04:42:00;;;;;;;0.87;0.87;;;3.60;99.90;;;;;;4982537;28;20330;-81
2022/03/06 04:44:25;;;;;;;1.10;1.10;;;3.60;99.90;;;;;;4981907;28;20697;-81
2022/03/06 04:46:51;;;;;;;0.70;0.70;;;3.50;99.90;;;;;;4981825;28;20689;-82
2022/03/06 04:49:17;;;;;;;0.50;0.50;;;3.50;99.90;;;;;;4968726;28;20377;-81
2022/03/06 04:51:42;;;;;;;0.80;0.80;;;3.50;99.90;;;;;;4997830;28;20232;-82
2022/03/06 04:54:08;;;;;;;0.80;0.80;;;3.60;99.90;;;;;;4966312;28;20192;-82
2022/03/06 04:56:35;;;;;;;0.77;0.77;;;3.60;99.90;;;;;;4999577;28;20530;-81
2022/03/06 04:59:02;;;;;;;0.60;0.60;;;3.60;99.90;;;;;;4982177;28;20236;-81
2022/03/06 05:01:28;;;;;;;1.30;0.73;;;3.60;99.90;;;;;;4981500;28;20290;-81
2022/03/06 05:03:54;;;;;;;0.40;0.40;;;3.60;99.90;;;;;;4988899;28;20220;-81
2022/03/06 05:06:20;;;;;;;1.13;1.13;;;3.60;99.90;;;;;;4981864;28;20200;-83
2022/03/06 05:08:45;;;;;;;0.37;0.37;;;3.70;99.90;;;;;;4980553;28;20223;-82
2022/03/06 05:11:11;;;;;;;0.67;0.67;;;3.70;99.90;;;;;;4982224;28;20219;-81
2022/03/06 05:13:37;;;;;;;2.07;0.53;;;3.60;99.90;;;;;;4981932;28;20306;-82
2022/03/06 05:16:03;;;;;;;0.60;0.60;;;3.70;99.90;;;;;;4965292;28;20320;-82
2022/03/06 05:18:30;;;;;;;3.17;1.03;;;3.60;99.90;;;;;;4983242;28;20188;-83
2022/03/06 05:20:56;;;;;;;1.27;1.17;;;3.60;99.90;;;;;;4983624;28;20447;-82
2022/03/06 05:23:22;;;;;;;0.70;0.63;;;3.60;99.90;;;;;;4983419;28;20301;-83
2022/03/06 05:25:48;;;;;;;1.30;1.27;;;3.60;99.90;;;;;;4982292;28;20247;-83
2022/03/06 05:28:14;;;;;;;1.37;1.20;;;3.60;99.90;;;;;;4964873;28;20629;-81
2022/03/06 05:30:40;;;;;;;0.57;0.57;;;3.60;99.90;;;;;;4984574;28;20243;-83
2022/03/06 05:33:06;;;;;;;0.53;0.53;;;3.60;99.90;;;;;;4981542;28;20180;-83
2022/03/06 05:35:32;;;;;;;1.17;1.13;;;3.60;99.90;;;;;;4966873;28;20218;-82
2022/03/06 05:37:58;;;;;;;0.70;0.70;;;3.60;99.90;;;;;;4991237;28;20226;-83
2022/03/06 05:40:24;;;;;;;1.23;0.80;;;3.60;99.90;;;;;;4981124;28;20754;-82
2022/03/06 05:42:50;;;;;;;0.73;0.73;;;3.60;99.90;;;;;;5008350;28;20229;-82
2022/03/06 05:45:16;;;;;;;0.80;0.80;;;3.60;99.90;;;;;;4971560;28;20191;-81
2022/03/06 05:47:43;;;;;;;1.07;0.63;;;3.60;99.90;;;;;;4988456;28;20684;-82
2022/03/06 05:50:10;;;;;;;1.17;1.07;;;3.60;99.90;;;;;;5021327;28;20226;-83
2022/03/06 05:52:36;;;;;;;1.07;1.07;;;3.60;99.90;;;;;;5003730;28;20308;-83
2022/03/06 05:55:03;;;;;;;0.60;0.60;;;3.60;99.90;;;;;;5020412;28;20254;-81
2022/03/06 05:57:29;;;;;;;9.47;1.47;;;3.50;99.90;;;;;;5003120;28;20201;-82
2022/03/06 05:59:55;;;;;;;0.30;0.30;;;3.50;99.90;;;;;;5003512;28;20256;-82
2022/03/06 06:02:21;;;;;;;1.77;1.30;;;3.50;99.90;;;;;;5020740;28;20280;-82
2022/03/06 06:04:48;;;;;;;0.43;0.43;;;3.40;99.90;;;;;;4986173;28;20226;-82
2022/03/06 06:07:14;;;;;;;0.50;0.50;;;3.40;99.90;;;;;;5003878;28;20214;-82
2022/03/06 06:09:40;;;;;;;0.63;0.57;;;3.40;99.90;;;;;;5002729;28;20222;-81
2022/03/06 06:12:06;;;;;;;0.67;0.63;;;3.40;99.90;;;;;;4987679;28;20250;-83
2022/03/06 06:14:32;;;;;;;1.10;1.00;;;3.40;99.90;;;;;;5018679;28;20225;-82
2022/03/06 06:16:58;;;;;;;0.33;0.33;;;3.40;99.90;;;;;;5021507;28;20413;-82
2022/03/06 06:19:23;;;;;;;1.13;1.10;;;3.30;99.90;;;;;;5001517;28;20749;-82
2022/03/06 06:21:49;;;;;;;1.03;0.97;;;3.40;99.90;;;;;;4987745;28;20246;-82
2022/03/06 06:24:15;;;;;;;0.50;0.50;;;3.50;99.90;;;;;;4987003;28;20670;-84
2022/03/06 06:26:43;;;;;;;0.40;0.40;;;3.50;99.90;;;;;;5001441;28;20520;-81
2022/03/06 06:29:09;;;;;;;4.73;1.00;;;3.40;99.90;;;;;;5000917;28;20218;-81
2022/03/06 06:31:35;;;;;;;0.40;0.40;;;3.40;99.90;;;;;;5001608;28;20298;-84
2022/03/06 06:34:01;;;;;;;0.60;0.60;;;3.30;99.90;;;;;;5003051;28;20946;-83
2022/03/06 06:36:27;;;;;;;0.40;0.40;;;3.30;99.90;;;;;;4987700;28;20194;-82
2022/03/06 06:38:53;;;;;;;0.80;0.70;;;3.30;99.90;;;;;;5003945;28;20214;-81
2022/03/06 06:41:19;;;;;;;0.50;0.50;;;3.30;99.90;;;;;;5000741;28;20547;-80
2022/03/06 06:43:44;;;;;;;0.67;0.67;;;3.30;99.90;;;;;;4965883;28;20696;-80
2022/03/06 06:46:11;;;;;;;0.87;0.87;;;3.20;99.90;;;;;;4992313;28;20223;-81
2022/03/06 06:48:37;;;;;;;0.80;0.80;;;3.20;99.90;;;;;;4965658;28;20200;-81
2022/03/06 06:51:04;;;;;;;0.57;0.57;;;3.10;99.90;;;;;;4985310;28;20220;-81
2022/03/06 06:53:30;;;;;;;0.70;0.70;;;2.90;99.90;;;;;;4965914;28;20369;-81
2022/03/06 06:55:55;;;;;;;0.70;0.70;;;2.80;99.90;;;;;;4972038;28;20319;-81
2022/03/06 06:58:21;;;;;;;0.63;0.63;;;2.70;99.90;;;;;;4988662;28;20744;-81
2022/03/06 07:00:47;;;;;;;2.10;0.80;;;2.70;99.90;;;;;;4980042;28;20262;-81
2022/03/06 07:03:13;;;;;;;1.37;1.27;;;3.00;99.90;;;;;;4964768;28;20642;-83
2022/03/06 07:05:39;;;;;;;0.53;0.53;;;3.90;99.90;;;;;;4983470;28;20220;-81
2022/03/06 07:08:04;;;;;;;0.60;0.60;;;4.70;99.90;;;;;;4968405;28;20677;-85
2022/03/06 07:10:30;;;;;;;0.60;0.60;;;5.50;99.90;;;;;;4982977;28;20758;-83
2022/03/06 07:12:58;;;;;;;0.63;0.53;;;6.00;99.90;;;;;;4968267;28;20250;-83
2022/03/06 07:15:32;;;;;;;1.37;1.23;;;6.20;99.90;;;;;;4982614;28;20645;-82
2022/03/06 07:17:59;;;;;;;0.90;0.90;;;6.30;99.90;;;;;;4969987;28;20187;-82
2022/03/06 07:20:26;;;;;;;1.17;1.17;;;5.90;99.90;;;;;;4968636;28;20763;-81
2022/03/06 07:22:52;;;;;;;1.17;1.10;;;5.90;99.90;;;;;;4995713;28;20730;-82
2022/03/06 07:25:18;;;;;;;1.53;1.43;;;6.00;99.90;;;;;;4993546;28;20684;-83
2022/03/06 07:27:44;;;;;;;0.87;0.60;;;6.10;99.90;;;;;;4983925;28;20222;-83
2022/03/06 07:30:11;;;;;;;3.07;1.27;;;6.10;99.90;;;;;;4985485;28;20597;-82
2022/03/06 07:32:41;;;;;;;1.47;1.37;;;6.00;99.90;;;;;;4985530;28;20734;-81
2022/03/06 07:35:08;;;;;;;0.70;0.70;;;6.00;99.90;;;;;;4984511;28;20235;-81
2022/03/06 07:37:33;;;;;;;1.30;1.20;;;6.10;99.90;;;;;;4983356;28;20645;-81
2022/03/06 07:39:59;;;;;;;0.97;0.93;;;6.30;99.90;;;;;;4986347;28;20310;-81
2022/03/06 07:42:25;;;;;;;1.27;1.27;;;5.90;99.90;;;;;;4948569;28;20322;-81
2022/03/06 07:44:50;;;;;;;0.93;0.93;;;6.20;99.90;;;;;;4994296;28;20312;-81
2022/03/06 07:47:16;;;;;;;0.80;0.80;;;7.20;99.90;;;;;;4980588;28;20223;-81
2022/03/06 07:49:42;;;;;;;1.20;1.10;;;8.00;99.90;;;;;;4981751;28;20227;-82
2022/03/06 07:52:08;;;;;;;0.80;0.80;;;8.60;99.90;;;;;;4980297;28;20669;-81
2022/03/06 07:54:34;;;;;;;1.63;1.40;;;9.20;99.90;;;;;;4979748;28;20359;-82
2022/03/06 07:56:59;;;;;;;1.63;1.10;;;9.80;99.90;;;;;;4995996;28;20195;-81
2022/03/06 07:59:25;;;;;;;0.60;0.60;;;10.20;99.90;;;;;;4992533;28;20571;-81
2022/03/06 08:01:55;;;;;;;2.30;1.03;;;9.50;99.90;;;;;;4989210;28;20224;-82
2022/03/06 08:04:20;;;;;;;1.03;1.03;;;9.90;99.90;;;;;;4997050;28;20370;-81
2022/03/06 08:06:47;;;;;;;0.97;0.87;;;10.20;99.90;;;;;;4988022;28;20311;-82
2022/03/06 08:09:13;;;;;;;1.00;0.90;;;10.30;99.90;;;;;;4981248;28;20734;-82
2022/03/06 08:11:39;;;;;;;0.90;0.60;;;10.40;99.90;;;;;;4978588;28;20232;-81
2022/03/06 08:14:04;;;;;;;1.27;1.03;;;10.40;99.90;;;;;;4995583;28;20286;-82
2022/03/06 08:16:30;;;;;;;1.50;1.20;;;10.10;99.90;;;;;;4997303;28;20303;-81
2022/03/06 08:18:56;;;;;;;1.10;1.10;;;10.10;99.90;;;;;;4980951;28;20566;-82
2022/03/06 08:21:22;;;;;;;0.80;0.80;;;9.70;99.90;;;;;;4989951;28;20200;-81
2022/03/06 08:23:49;;;;;;;0.80;0.80;;;9.50;99.90;;;;;;4980238;28;20924;-82
2022/03/06 08:26:15;;;;;;;1.03;0.93;;;8.80;99.90;;;;;;4981477;28;20231;-80
2022/03/06 08:28:41;;;;;;;1.33;1.23;;;8.50;99.90;;;;;;4972635;28;20308;-81
2022/03/06 08:31:07;;;;;;;0.90;0.90;;;8.60;99.90;;;;;;4981110;28;20248;-81
2022/03/06 08:33:32;;;;;;;1.13;1.00;;;9.10;99.90;;;;;;4986419;28;20649;-81
2022/03/06 08:35:58;;;;;;;1.50;0.90;;;10.10;99.90;;;;;;4994315;28;20252;-81
2022/03/06 08:38:24;;;;;;;1.07;1.00;;;10.30;99.90;;;;;;4978638;28;20258;-82
2022/03/06 08:40:49;;;;;;;2.30;1.27;;;10.00;99.90;;;;;;4955108;28;20708;-81
2022/03/06 08:43:15;;;;;;;1.17;0.90;;;10.10;99.90;;;;;;4997090;28;20247;-81
2022/03/06 08:45:41;;;;;;;1.17;1.03;;;9.70;99.90;;;;;;4955738;28;20668;-81
2022/03/06 08:48:07;;;;;;;1.10;1.00;;;9.70;99.90;;;;;;4972784;28;20298;-81
2022/03/06 08:50:32;;;;;;;1.20;1.00;;;8.80;99.90;;;;;;4990458;28;20232;-82
2022/03/06 08:52:58;;;;;;;1.73;1.43;;;8.90;99.90;;;;;;4943425;28;20326;-82
2022/03/06 08:55:24;;;;;;;4.73;1.20;;;9.40;99.90;;;;;;4954503;28;20242;-83
2022/03/06 08:57:50;;;;;;;1.40;1.00;;;8.80;99.90;;;;;;4971938;28;20251;-82
2022/03/06 09:00:16;;;;;;;1.47;1.27;;;9.20;99.90;;;;;;4971338;28;20191;-82
2022/03/06 09:02:41;;;;;;;0.80;0.80;;;9.30;99.90;;;;;;4954801;28;20216;-81
2022/03/06 09:05:07;;;;;;;0.80;0.80;;;8.50;99.90;;;;;;4955699;28;20322;-82
2022/03/06 09:07:33;;;;;;;0.73;0.60;;;7.80;99.90;;;;;;4984587;28;20567;-82
2022/03/06 09:09:59;;;;;;;1.20;0.80;;;7.00;99.90;;;;;;4941717;28;20241;-81
2022/03/06 09:12:26;;;;;;;6.30;1.03;;;6.50;99.90;;;;;;4970361;28;20195;-81
2022/03/06 09:14:55;;;;;;;0.83;0.83;;;6.00;99.90;;;;;;4973388;28;20210;-81
2022/03/06 09:17:21;;;;;;;0.50;0.50;;;6.20;99.90;;;;;;4991023;28;20233;-81
2022/03/06 09:19:47;;;;;;;1.37;1.17;;;6.00;99.90;;;;;;4970446;28;20543;-82
2022/03/06 09:22:13;;;;;;;2.60;1.30;;;6.00;99.90;;;;;;4993560;28;20223;-81
2022/03/06 09:24:39;;;;;;;1.40;1.30;;;6.10;99.90;;;;;;4972674;28;20223;-82
2022/03/06 09:27:05;;;;;;;1.60;1.37;;;6.00;99.90;;;;;;4975011;28;20505;-81
2022/03/06 09:29:31;;;;;;;1.00;1.00;;;6.10;99.90;;;;;;4973787;28;20263;-82
2022/03/06 09:31:57;;;;;;;1.13;0.70;;;6.20;99.90;;;;;;4956797;28;20227;-82
2022/03/06 09:34:22;;;;;;;0.60;0.60;;;6.00;99.90;;;;;;4954200;28;20341;-82
2022/03/06 09:36:48;;;;;;;0.70;0.70;;;5.90;99.90;;;;;;4971277;28;20682;-83
2022/03/06 09:39:15;;;;;;;0.87;0.87;;;5.80;99.90;;;;;;4937191;28;20565;-83
2022/03/06 09:41:41;;;;;;;0.73;0.73;;;5.60;99.90;;;;;;4966401;28;20242;-82
2022/03/06 09:44:08;;;;;;;5.67;1.00;;;5.60;99.90;;;;;;5017177;28;20214;-82
2022/03/06 09:46:35;;;;;;;0.50;0.50;;;5.80;99.90;;;;;;4974891;28;20572;-82
2022/03/06 09:49:04;;;;;;;1.03;1.03;;;5.90;99.90;;;;;;4999937;28;20218;-83
2022/03/06 09:51:34;;;;;;;0.80;0.80;;;5.90;99.90;;;;;;4999507;28;20591;-82
2022/03/06 09:54:00;;;;;;;1.13;1.03;;;5.80;99.90;;;;;;4981371;28;20195;-82
2022/03/06 09:56:26;;;;;;;0.63;0.63;;;5.70;99.90;;;;;;4988909;28;20630;-81
2022/03/06 09:58:51;;;;;;;1.07;0.90;;;5.80;99.90;;;;;;4980525;28;20206;-81
2022/03/06 10:01:17;;;;;;;1.43;1.33;;;5.80;99.90;;;;;;4990544;28;20227;-82
2022/03/06 10:03:43;;;;;;;0.77;0.77;;;5.90;99.90;;;;;;4996135;28;20258;-82
2022/03/06 10:06:11;;;;;;;2.87;0.93;;;5.90;99.90;;;;;;4985303;28;20203;-82
2022/03/06 10:08:37;;;;;;;0.87;0.87;;;5.70;99.90;;;;;;4994472;28;20710;-81
2022/03/06 10:11:08;;;;;;;1.80;0.93;;;5.80;99.90;;;;;;4995934;28;20231;-82
2022/03/06 10:13:36;;;;;;;1.40;1.23;;;6.10;99.90;;;;;;4995867;28;20223;-83
2022/03/06 10:16:10;;;;;;;1.53;1.37;;;6.20;99.90;;;;;;5006269;28;20214;-82
2022/03/06 10:18:47;;;;;;;2.23;1.40;;;6.30;99.90;;;;;;4996500;28;20656;-83
2022/03/06 10:21:22;;;;;;;0.83;0.83;;;6.20;99.90;;;;;;5007416;28;20206;-82
2022/03/06 10:23:51;;;;;;;0.73;0.70;;;6.60;99.90;;;;;;4998088;28;20223;-82
2022/03/06 10:26:21;;;;;;;0.70;0.70;;;7.20;99.90;;;;;;4996996;28;20222;-82
2022/03/06 10:29:02;;;;;;;0.80;0.80;;;7.80;99.90;;;;;;5008578;28;20896;-83
2022/03/06 10:31:31;;;;;;;0.80;0.80;;;8.10;99.90;;;;;;4986572;28;20583;-83
2022/03/06 10:34:09;;;;;;;1.70;0.80;;;8.30;99.90;;;;;;4998249;28;20218;-81
2022/03/06 10:36:40;;;;;;;0.90;0.73;;;9.60;99.90;;;;;;5007299;28;20281;-82
2022/03/06 10:39:10;;;;;;;1.13;0.90;;;10.00;99.90;;;;;;5017447;28;20179;-82
2022/03/06 10:41:38;;;;;;;1.83;0.93;;;9.80;99.90;;;;;;5011522;28;20321;-82
2022/03/06 10:44:09;;;;;;;0.67;0.67;;;10.00;99.90;;;;;;4988641;28;20226;-83
2022/03/06 10:46:36;;;;;;;1.17;1.07;;;10.60;99.90;;;;;;4995842;28;20235;-83
2022/03/06 10:49:12;;;;;;;1.17;0.90;;;9.90;99.90;;;;;;4997531;28;20223;-82
2022/03/06 10:51:50;;;;;;;1.10;0.90;;;10.60;99.90;;;;;;4996520;28;20326;-82
2022/03/06 10:54:16;;;;;;;1.53;1.40;;;10.90;99.90;;;;;;5013835;28;20226;-82
2022/03/06 10:56:44;;;;;;;3.63;1.83;;;10.70;99.90;;;;;;4998313;28;20219;-82
2022/03/06 10:59:10;;;;;;;1.20;1.10;;;11.00;99.90;;;;;;4979268;28;20273;-83
2022/03/06 11:01:38;;;;;;;1.03;1.03;;;10.80;99.90;;;;;;4996967;28;20227;-82
2022/03/06 11:04:06;;;;;;;2.87;1.20;;;11.10;99.90;;;;;;4980991;28;20212;-81
2022/03/06 11:06:42;;;;;;;1.40;1.30;;;11.00;99.90;;;;;;4996102;28;20729;-82
2022/03/06 11:09:12;;;;;;;2.60;2.50;;;11.10;99.90;;;;;;4994807;28;20191;-82
2022/03/06 11:11:44;;;;;;;0.80;0.80;;;11.20;99.90;;;;;;4997930;28;20273;-82
2022/03/06 11:14:14;;;;;;;1.23;1.13;;;11.20;99.90;;;;;;4999208;28;20700;-82
2022/03/06 11:16:40;;;;;;;1.13;1.13;;;10.60;99.90;;;;;;4999067;28;20329;-82
2022/03/06 11:19:07;;;;;;;1.00;0.83;;;9.90;99.90;;;;;;4995002;28;20225;-82
2022/03/06 11:21:42;;;;;;;4.43;1.60;;;9.40;99.90;;;;;;4995780;28;20201;-81
2022/03/06 11:24:17;;;;;;;1.13;1.10;;;9.50;99.90;;;;;;4998909;28;20196;-82
2022/03/06 11:27:08;;;;;;;1.20;1.10;;;9.80;99.90;;;;;;4995383;28;20207;-83
2022/03/06 11:30:05;;;;;;;0.97;0.80;;;9.70;99.90;;;;;;5010687;28;20234;-81
2022/03/06 11:32:35;;;;;;;1.13;0.83;;;9.20;99.90;;;;;;4997106;28;20302;-82
2022/03/06 11:35:08;;;;;;;2.37;1.37;;;8.90;99.90;;;;;;4996160;28;20285;-81
2022/03/06 11:37:50;;;;;;;0.87;0.83;;;9.40;99.90;;;;;;4997673;28;20342;-81
2022/03/06 11:40:34;;;;;;;1.40;1.30;;;9.50;99.90;;;;;;4997392;28;20223;-82
2022/03/06 11:43:00;;;;;;;1.37;1.27;;;9.40;99.90;;;;;;4995756;28;20329;-83
2022/03/06 11:45:50;;;;;;;3.07;1.10;;;9.40;99.90;;;;;;4995940;28;20657;-82
2022/03/06 11:48:25;;;;;;;1.17;1.07;;;9.10;99.90;;;;;;4998751;28;20252;-83
2022/03/06 11:51:22;;;;;;;1.30;1.13;;;9.00;99.90;;;;;;4998891;28;20223;-85
2022/03/06 11:54:03;;;;;;;0.73;0.73;;;9.50;99.90;;;;;;4999991;28;20227;-83
2022/03/06 11:56:31;;;;;;;1.20;1.00;;;9.30;99.90;;;;;;5000997;28;20298;-82
2022/03/06 11:58:58;;;;;;;5.87;1.27;;;9.10;99.90;;;;;;5000063;28;20372;-81
2022/03/06 12:01:44;;;;;;;0.70;0.70;;;9.00;99.90;;;;;;4998357;28;20322;-80
2022/03/06 12:04:15;;;;;;;0.70;0.70;;;8.80;99.90;;;;;;4999111;28;20601;-80
2022/03/06 12:06:50;;;;;;;0.63;0.60;;;9.10;99.90;;;;;;4997511;28;20216;-79
2022/03/06 12:09:17;;;;;;;3.10;1.10;;;9.30;99.90;;;;;;4997942;28;20190;-81
2022/03/06 12:11:44;;;;;;;1.20;1.13;;;9.00;99.90;;;;;;5000809;28;20297;-83
2022/03/06 12:14:34;;;;;;;1.80;1.10;;;8.90;99.90;;;;;;4982776;28;20223;-81
2022/03/06 12:17:00;;;;;;;0.70;0.70;;;9.30;99.90;;;;;;4997474;28;20211;-80
2022/03/06 12:19:30;;;;;;;1.57;0.50;;;9.60;99.90;;;;;;4996006;28;20729;-79
2022/03/06 12:22:14;;;;;;;1.80;1.10;;;9.40;99.90;;;;;;5000300;28;20586;-81
2022/03/06 12:24:42;;;;;;;1.13;1.00;;;9.80;99.90;;;;;;5000465;28;20230;-81
2022/03/06 12:27:16;;;;;;;3.50;1.57;;;9.60;99.90;;;;;;5000378;28;20183;-80
2022/03/06 12:29:56;;;;;;;1.37;0.90;;;9.50;99.90;;;;;;4997134;28;20285;-81
2022/03/06 12:32:32;;;;;;;2.93;0.87;;;9.20;99.90;;;;;;4998845;28;20215;-81
2022/03/06 12:35:06;;;;;;;0.70;0.70;;;9.00;99.90;;;;;;5016022;28;20693;-81
2022/03/06 12:37:37;;;;;;;0.93;0.80;;;8.90;99.90;;;;;;5014144;28;20221;-81
2022/03/06 12:40:05;;;;;;;0.80;0.80;;;8.60;99.90;;;;;;4997978;28;20219;-82
2022/03/06 12:42:34;;;;;;;0.67;0.60;;;8.40;99.90;;;;;;5004012;28;20292;-81
2022/03/06 12:45:11;;;;;;;1.63;1.23;;;8.20;99.90;;;;;;5003711;28;20644;-81
2022/03/06 12:47:38;;;;;;;1.07;0.87;;;8.20;99.90;;;;;;5009066;28;20326;-81
2022/03/06 12:50:07;;;;;;;0.83;0.83;;;8.20;99.90;;;;;;4998974;28;20219;-80
2022/03/06 12:52:33;;;;;;;2.27;1.07;;;8.10;99.90;;;;;;5001625;28;20229;-82
2022/03/06 12:55:03;;;;;;;0.77;0.77;;;8.20;99.90;;;;;;5000273;28;20896;-81
2022/03/06 12:57:37;;;;;;;2.90;0.87;;;8.30;99.90;;;;;;5000644;28;20217;-81